Spangler Peak (973) Station Data

Red Flag Warning: No
Fire Weather Zone: 250
SDGE Region: Ramona
Lat/Lon: 32.997/-116.789

Observations

Time Wind Speed/Gust Temp(F) RH Fuel Moist Fuel Temp(F) Dewpt(F) Tmax(F) Tmin(F) Accum Precip 10-min Precip SL Press(mb)
4/26 2:50am 133 3 G 3 53° 74% - - 45° 54.6° 52.5° - - 883.0
4/26 2:40am 113 2 G 3 53° 75% - - 46° 54.6° 52.5° - - 883.0
4/26 2:30am 261 0 G 1 53° 75% - - 46° 54.6° 52.5° - - 883.0
4/26 2:20am 260 0 G 1 53° 75% - - 45° 54.6° 52.5° - - 883.0
4/26 2:10am 210 2 G 3 53° 75% - - 45° 54.6° 52.5° - - 883.0
4/26 2:00am 226 2 G 3 53° 75% - - 46° 54.6° 52.6° - - 884.0
4/26 1:50am 0 0 G 0 53° 75% - - 46° 54.6° 52.6° - - 884.0
4/26 1:40am 122 1 G 2 53° 75% - - 45° 54.6° 52.6° - - 884.0
4/26 1:30am 187 1 G 2 53° 73% - - 45° 54.6° 52.7° - - 883.0
4/26 1:20am 170 1 G 1 54° 73% - - 46° 54.6° 52.9° - - 883.0
4/26 1:10am 169 2 G 3 54° 73% - - 46° 54.6° 52.9° - - 883.0
4/26 1:00am 177 3 G 4 54° 74% - - 46° 54.3° 52.9° - - 883.0
4/26 12:50am 166 3 G 4 54° 74% - - 46° 54.3° 52.9° - - 883.0
4/26 12:40am 132 3 G 4 54° 74% - - 46° 54.3° 52.9° - - 883.0
4/26 12:30am 134 4 G 6 54° 74% - - 46° 54.2° 52.9° - - 883.0
4/26 12:20am 151 6 G 7 54° 75% - - 46° 54° 52.9° - - 884.0
4/26 12:00am 146 3 G 5 53° 76% - - 46° 65.6° 52.5° - - 884.0
4/25 11:50pm 112 3 G 4 53° 75% - - 46° 65.6° 52.5° - - 884.0
4/25 11:40pm 151 5 G 7 54° 73% - - 46° 65.6° 52.5° - - 883.0
4/25 11:30pm 142 7 G 8 54° 73% - - 46° 65.6° 52.5° - - 883.0
4/25 11:20pm 142 7 G 8 54° 72% - - 45° 65.6° 52.5° - - 882.0
4/25 11:10pm 136 6 G 7 55° 70% - - 45° 65.6° 52.5° - - 882.0
4/25 11:00pm 130 6 G 7 55° 70% - - 45° 65.6° 52.5° - - 882.0
4/25 10:50pm 138 6 G 7 55° 69% - - 45° 65.6° 52.5° - - 881.0
4/25 10:40pm 147 6 G 7 55° 68% - - 44° 65.6° 52.5° - - 881.0
4/25 10:30pm 150 5 G 6 55° 68% - - 44° 65.6° 52.5° - - 881.0
4/25 10:20pm 170 3 G 4 55° 68% - - 45° 65.6° 52.5° - - 881.0
4/25 10:10pm 170 1 G 3 55° 67% - - 45° 65.6° 52.5° - - 881.0
4/25 10:00pm 324 0 G 1 56° 67% - - 45° 65.6° 52.5° - - 881.0
4/25 9:50pm 231 1 G 2 56° 66% - - 45° 65.6° 52.5° - - 880.0
4/25 9:40pm 290 0 G 1 56° 66% - - 45° 65.6° 52.5° - - 881.0
4/25 9:30pm 290 1 G 1 56° 66% - - 45° 65.6° 52.5° - - 881.0
4/25 9:20pm 272 1 G 2 56° 66% - - 45° 65.6° 52.5° - - 880.0
4/25 9:10pm 295 1 G 2 56° 66% - - 45° 65.6° 52.5° - - 880.0
4/25 9:00pm 305 2 G 2 56° 66% - - 45° 65.6° 52.5° - - 880.0
4/25 8:50pm 258 2 G 2 56° 66% - - 45° 65.6° 52.5° - - 881.0
4/25 8:40pm 211 2 G 3 56° 66% - - 45° 65.6° 52.5° - - 880.0
4/25 8:30pm 286 1 G 2 57° 65% - - 45° 65.6° 52.5° - - 880.0
4/25 8:20pm 239 1 G 2 57° 65% - - 45° 65.6° 52.5° - - 880.0
4/25 8:10pm 268 3 G 5 57° 65% - - 45° 65.6° 52.5° - - 880.0
4/25 8:00pm 231 3 G 5 57° 65% - - 45° 65.6° 52.5° - - 880.0
4/25 7:50pm 222 3 G 7 57° 64% - - 45° 65.6° 52.5° - - 880.0
4/25 7:40pm 273 7 G 10 58° 63% - - 46° 65.6° 52.5° - - 880.0
4/25 7:30pm 278 7 G 9 58° 63% - - 46° 65.6° 52.5° - - 880.0
4/25 7:20pm 280 6 G 9 59° 63% - - 46° 65.6° 52.5° - - 880.0
4/25 7:10pm 284 6 G 9 59° 62% - - 46° 65.6° 52.5° - - 880.0
4/25 7:00pm 287 7 G 11 60° 61% - - 46° 65.6° 52.5° - - 880.0
4/25 6:50pm 280 8 G 12 60° 61% - - 46° 65.6° 52.5° - - 880.0
4/25 6:40pm 277 9 G 12 60° 60% - - 46° 65.6° 52.5° - - 879.0
4/25 6:30pm 279 9 G 13 61° 59% - - 47° 65.6° 52.5° - - 879.0
4/25 6:20pm 280 7 G 11 62° 59% - - 47° 65.6° 52.5° - - 880.0
4/25 6:10pm 272 7 G 12 62° 59% - - 47° 65.6° 52.5° - - 880.0
4/25 6:00pm 263 8 G 13 62° 59% - - 48° 65.6° 52.5° - - 880.0
4/25 5:50pm 288 8 G 12 63° 59% - - 48° 65.6° 52.5° - - 880.0
4/25 5:40pm 269 9 G 14 63° 60% - - 49° 65.6° 52.5° - - 881.0
4/25 5:30pm 266 8 G 13 63° 59% - - 49° 65.6° 52.5° - - 880.0
4/25 5:20pm 274 9 G 15 63° 58% - - 48° 65.6° 52.5° - - 880.0
4/25 5:10pm 268 5 G 11 64° 57% - - 48° 65.6° 52.5° - - 880.0
4/25 5:00pm 255 8 G 11 64° 57% - - 48° 65.6° 52.5° - - 879.0
4/25 4:50pm 273 7 G 13 64° 56% - - 48° 65.6° 52.5° - - 879.0
4/25 4:40pm 251 7 G 16 64° 56% - - 48° 65.6° 52.5° - - 879.0
4/25 4:30pm 286 6 G 11 64° 54% - - 48° 65.6° 52.5° - - 879.0
4/25 4:20pm 276 7 G 11 64° 55% - - 47° 65.6° 52.5° - - 879.0
4/25 4:10pm 276 7 G 12 64° 55% - - 47° 65.6° 52.5° - - 879.0
4/25 4:00pm 267 8 G 13 64° 56% - - 48° 65.6° 52.5° - - 879.0
4/25 3:50pm 275 9 G 14 64° 56% - - 48° 65.6° 52.5° - - 879.0
4/25 3:40pm 253 10 G 15 63° 58% - - 48° 65.6° 52.5° - - 880.0
4/25 3:30pm 258 9 G 14 63° 58% - - 48° 65.6° 52.5° - - 880.0
4/25 3:20pm 268 9 G 14 63° 58% - - 48° 65.6° 52.5° - - 880.0
4/25 3:10pm 259 9 G 14 63° 58% - - 48° 65.6° 52.5° - - 880.0
4/25 3:00pm 255 9 G 14 63° 58% - - 48° 65.6° 52.5° - - 880.0
4/25 2:50pm 236 7 G 12 63° 57% - - 48° 65.6° 52.5° - - 880.0
4/25 2:40pm 245 7 G 12 64° 55% - - 48° 65.6° 52.5° - - 879.0
4/25 2:30pm 283 7 G 14 64° 52% - - 46° 65.6° 52.5° - - 878.0
4/25 2:20pm 281 8 G 13 65° 53% - - 47° 65.6° 52.5° - - 878.0
4/25 2:10pm 270 8 G 14 64° 54% - - 47° 65.6° 52.5° - - 878.0
4/25 2:00pm 264 8 G 13 65° 53% - - 47° 65.6° 52.5° - - 878.0
4/25 1:50pm 270 7 G 12 64° 54% - - 47° 65.6° 52.5° - - 879.0
4/25 1:40pm 272 8 G 15 64° 54% - - 47° 65.6° 52.5° - - 878.0
4/25 1:30pm 259 7 G 13 64° 50% - - 45° 65.6° 52.5° - - 877.0
4/25 1:20pm 284 7 G 13 64° 51% - - 45° 65.6° 52.5° - - 877.0
4/25 1:10pm 280 6 G 13 65° 49% - - 45° 65.6° 52.5° - - 877.0
4/25 1:00pm 268 7 G 11 63° 52% - - 45° 64.2° 52.5° - - 878.0
4/25 12:50pm 251 9 G 16 63° 53% - - 46° 64.2° 52.5° - - 878.0
4/25 12:40pm 269 9 G 15 63° 52% - - 45° 64.2° 52.5° - - 878.0
4/25 12:30pm 259 9 G 15 63° 53% - - 46° 64.2° 52.5° - - 878.0
4/25 12:20pm 255 9 G 14 63° 54% - - 46° 64.2° 52.5° - - 878.0
4/25 12:10pm 254 7 G 13 63° 53% - - 46° 63.8° 52.5° - - 878.0
4/25 12:00pm 253 9 G 15 62° 56% - - 46° 63.2° 52.5° - - 879.0
4/25 11:50am 273 8 G 14 63° 54% - - 46° 63.2° 52.5° - - 878.0
4/25 11:40am 247 8 G 13 62° 56% - - 46° 62.9° 52.5° - - 879.0
4/25 11:30am 298 5 G 10 62° 54% - - 45° 62.7° 52.5° - - 878.0
4/25 11:20am 286 6 G 12 61° 56% - - 45° 62.1° 52.5° - - 879.0
4/25 11:10am 244 4 G 12 61° 57% - - 45° 62.1° 52.5° - - 879.0
4/25 11:00am 307 5 G 11 61° 56% - - 46° 62.1° 52.5° - - 879.0
4/25 10:50am 242 5 G 10 60° 59% - - 46° 61.2° 52.5° - - 880.0
4/25 10:40am 261 7 G 11 59° 62% - - 47° 60.5° 52.5° - - 880.0
4/25 10:30am 285 4 G 9 60° 58% - - 45° 60.5° 52.5° - - 879.0
4/25 10:20am 261 5 G 8 59° 62% - - 46° 60.3° 52.5° - - 880.0
4/25 10:10am 267 7 G 11 59° 63% - - 46° 60.3° 52.5° - - 880.0
4/25 10:00am 235 4 G 8 59° 62% - - 46° 60.2° 52.5° - - 880.0
4/25 9:50am 230 7 G 10 58° 65% - - 47° 59° 52.5° - - 881.0
4/25 9:40am 216 5 G 9 58° 68% - - 47° 58.3° 52.5° - - 882.0
4/25 9:30am 231 6 G 9 57° 69% - - 47° 57.8° 52.5° - - 883.0
4/25 9:20am 242 6 G 9 57° 72% - - 48° 57° 52.5° - - 883.0
4/25 9:10am 251 6 G 9 56° 73% - - 48° 56.5° 52.5° - - 884.0
4/25 9:00am 252 6 G 10 56° 74% - - 48° 56.4° 52.5° - - 884.0
4/25 8:50am 244 7 G 10 56° 74% - - 48° 56.3° 52.5° - - 884.0
4/25 8:40am 239 7 G 10 56° 75% - - 48° 56.3° 52.5° - - 884.0
4/25 8:30am 219 6 G 11 55° 76% - - 48° 55.8° 52.5° - - 885.0
4/25 8:20am 223 6 G 11 55° 77% - - 48° 55.5° 52.5° - - 885.0
4/25 8:10am 234 4 G 9 55° 80% - - 49° 55.5° 52.5° - - 887.0
4/25 8:00am 227 4 G 7 54° 81% - - 49° 54.7° 52.5° - - 887.0
4/25 7:50am 257 2 G 5 54° 81% - - 49° 54.5° 52.5° - - 887.0
4/25 7:40am 181 1 G 3 54° 82% - - 49° 54.5° 52.5° - - 887.0
4/25 7:30am 337 1 G 2 54° 83% - - 49° 54.5° 52.5° - - 887.0
4/25 7:20am 25 1 G 2 53° 83% - - 48° 54.5° 52.5° - - 887.0
4/25 7:10am 348 0 G 1 53° 84% - - 48° 54.5° 52.5° - - 887.0
4/25 7:00am 27 1 G 2 53° 84% - - 48° 54.5° 52.5° - - 887.0
4/25 6:50am 104 2 G 3 53° 84% - - 48° 54.5° 52.5° - - 887.0
4/25 6:40am 190 2 G 3 53° 83% - - 48° 54.5° 52.5° - - 887.0
4/25 6:30am 211 2 G 3 53° 83% - - 48° 54.5° 52.5° - - 887.0
4/25 6:20am 245 2 G 4 53° 82% - - 48° 54.5° 52.5° - - 887.0
4/25 6:10am 242 1 G 2 53° 82% - - 47° 54.5° 52.5° - - 886.0
4/25 6:00am 239 2 G 3 53° 82% - - 47° 54.5° 52.5° - - 887.0
4/25 5:50am 238 1 G 2 53° 82% - - 47° 54.5° 52.6° - - 886.0
4/25 5:40am 307 1 G 3 53° 82% - - 47° 54.5° 52.6° - - 887.0
4/25 5:30am 59 1 G 3 53° 82% - - 47° 54.5° 52.6° - - 886.0
4/25 5:20am 40 2 G 3 53° 82% - - 47° 54.5° 52.6° - - 886.0
4/25 5:10am 349 1 G 2 53° 82% - - 47° 54.5° 52.6° - - 887.0
4/25 5:00am 3 1 G 3 53° 82% - - 47° 54.5° 52.6° - - 887.0
4/25 4:50am 47 1 G 3 53° 82% - - 47° 54.5° 52.6° - - 886.0
4/25 4:40am 319 2 G 3 53° 81% - - 47° 54.5° 52.8° - - 886.0
4/25 4:30am 338 2 G 3 53° 80% - - 47° 54.5° 53° - - 886.0
4/25 4:20am 16 3 G 5 54° 80% - - 48° 54.5° 53° - - 886.0
4/25 4:10am 52 2 G 3 54° 80% - - 48° 54.5° 53° - - 886.0
4/25 4:00am 126 1 G 2 54° 81% - - 48° 54.5° 53° - - 886.0
4/25 3:50am 201 1 G 3 54° 81% - - 48° 54.5° 53° - - 887.0
4/25 3:40am 185 1 G 3 54° 82% - - 48° 54.5° 53° - - 887.0
4/25 3:30am 200 3 G 6 53° 82% - - 48° 54.5° 53° - - 887.0
4/25 3:20am 223 4 G 7 53° 83% - - 48° 54.5° 53° - - 887.0
4/25 3:10am 225 7 G 11 53° 83% - - 48° 54.5° 53° - - 887.0
4/25 3:00am 242 7 G 11 54° 82% - - 48° 54.5° 53.3° - - 887.0
4/25 2:50am 240 6 G 10 54° 81% - - 48° 54.5° 53.6° - - 886.0
4/25 2:40am 235 5 G 11 54° 79% - - 48° 54.5° 53.7° - - 886.0
4/25 2:30am 227 4 G 9 54° 78% - - 48° 54.5° 53.7° - - 885.0
4/25 2:20am 218 2 G 5 54° 78% - - 47° 54.4° 53.7° - - 885.0
4/25 2:10am 187 3 G 5 54° 78% - - 47° 54.4° 53.7° - - 885.0
4/25 2:00am 211 3 G 5 54° 77% - - 47° 54.4° 53.7° - - 885.0
4/25 1:50am 220 3 G 5 54° 77% - - 47° 54.4° 53.7° - - 885.0
4/25 1:40am 208 5 G 9 54° 78% - - 47° 54.4° 53.7° - - 885.0
4/25 1:30am 199 6 G 10 54° 78% - - 47° 54.4° 53.7° - - 885.0
4/25 1:20am 205 6 G 11 54° 78% - - 47° 54.4° 53.7° - - 885.0
4/25 1:10am 213 5 G 8 54° 78% - - 47° 54.4° 53.7° - - 885.0
4/25 1:00am 214 5 G 10 54° 80% - - 48° 54.4° 53.7° - - 886.0
4/25 12:50am 224 5 G 9 54° 80% - - 48° 54.4° 53.7° - - 886.0
4/25 12:40am 190 4 G 7 54° 79% - - 48° 54.4° 53.8° - - 886.0
4/25 12:30am 164 5 G 8 54° 79% - - 48° 54.3° 53.8° - - 886.0
4/25 12:20am 161 5 G 7 54° 78% - - 47° 54.3° 53.8° - - 885.0
4/25 12:10am 161 5 G 9 54° 78% - - 47° 54.2° 53.8° - - 885.0
4/25 12:00am 184 6 G 10 54° 79% - - 47° 67.9° 51.4° - - 886.0
4/24 11:50pm 195 5 G 8 54° 79% - - 48° 67.9° 51.4° - - 886.0
4/24 11:40pm 232 4 G 8 54° 79% - - 48° 67.9° 51.4° - - 886.0
4/24 11:30pm 231 6 G 10 54° 79% - - 48° 67.9° 51.4° - - 886.0
4/24 11:20pm 249 7 G 11 54° 81% - - 48° 67.9° 51.4° - - 887.0
4/24 11:10pm 252 7 G 10 54° 81% - - 49° 67.9° 51.4° - - 887.0
4/24 11:00pm 246 7 G 10 54° 82% - - 49° 67.9° 51.4° - - 887.0
4/24 10:50pm 237 5 G 8 54° 82% - - 49° 67.9° 51.4° - - 887.0
4/24 10:40pm 248 6 G 10 54° 81% - - 49° 67.9° 51.4° - - 887.0
4/24 10:30pm 246 5 G 7 55° 79% - - 48° 67.9° 51.4° - - 886.0
4/24 10:20pm 215 4 G 6 55° 78% - - 48° 67.9° 51.4° - - 886.0
4/24 10:10pm 212 5 G 8 55° 78% - - 48° 67.9° 51.4° - - 886.0
4/24 10:00pm 229 4 G 5 56° 78% - - 49° 67.9° 51.4° - - 886.0
4/24 9:50pm 231 3 G 5 56° 79% - - 50° 67.9° 51.4° - - 887.0
4/24 9:40pm 249 4 G 6 56° 80% - - 49° 67.9° 51.4° - - 887.0
4/24 9:30pm 253 5 G 7 56° 78% - - 49° 67.9° 51.4° - - 886.0
4/24 9:20pm 247 5 G 6 56° 76% - - 49° 67.9° 51.4° - - 885.0
4/24 9:10pm 238 5 G 8 56° 74% - - 48° 67.9° 51.4° - - 884.0
4/24 9:00pm 225 6 G 8 56° 73% - - 48° 67.9° 51.4° - - 884.0
4/24 8:50pm 245 6 G 9 56° 74% - - 48° 67.9° 51.4° - - 884.0
4/24 8:40pm 248 6 G 9 56° 74% - - 48° 67.9° 51.4° - - 885.0
4/24 8:30pm 248 7 G 10 56° 75% - - 49° 67.9° 51.4° - - 885.0
4/24 8:20pm 246 6 G 9 56° 76% - - 49° 67.9° 51.4° - - 886.0
4/24 8:10pm 244 7 G 9 56° 77% - - 49° 67.9° 51.4° - - 886.0
4/24 8:00pm 238 5 G 9 57° 77% - - 50° 67.9° 51.4° - - 886.0
4/24 7:50pm 241 6 G 10 57° 77% - - 50° 67.9° 51.4° - - 886.0
4/24 7:40pm 249 8 G 13 57° 76% - - 50° 67.9° 51.4° - - 885.0
4/24 7:30pm 245 7 G 10 58° 75% - - 50° 67.9° 51.4° - - 885.0
4/24 7:20pm 243 7 G 10 58° 74% - - 50° 67.9° 51.4° - - 885.0
4/24 7:10pm 249 9 G 13 58° 73% - - 50° 67.9° 51.4° - - 885.0
4/24 7:00pm 249 9 G 12 59° 72% - - 50° 67.9° 51.4° - - 884.0
4/24 6:50pm 251 9 G 13 59° 71% - - 50° 67.9° 51.4° - - 884.0
4/24 6:40pm 254 7 G 11 60° 70% - - 50° 67.9° 51.4° - - 884.0
4/24 6:30pm 249 7 G 11 60° 68% - - 50° 67.9° 51.4° - - 883.0
4/24 6:20pm 237 7 G 12 61° 65% - - 49° 67.9° 51.4° - - 883.0
4/24 6:10pm 243 8 G 12 61° 64% - - 49° 67.9° 51.4° - - 883.0
4/24 6:00pm 229 8 G 14 62° 64% - - 49° 67.9° 51.4° - - 882.0